aviador You're here:

SBBV Decoded Metar

BOA VISTA in BRAZIL
Report Time2018-06-21 12:00:00
UTC Time2018-06-21 12:33:04
Flight Rules lifr LIFR
Wind260° at 05 kt
W.Decomp.*RWY 26: 4.9 kt HW 1.2 kt RCW
W.Rank260° ranks 30
Current wind is above 260° avg. (3.5)
Visibility9999 m
Phenomena:Vicinity showers
Clouds:Broken 004 Hf
Broken 015 Hf
Broken 070 Hf
Expected CloudBase > 800 ft AGL from Temp-Dew spread
Ceiling400 ft
Temp25°C (ISA +11)
Dew Point23°C (89% RH)
QNH1017 hPa
Density Alt1,959 ft
Elevation459 ft
Report Wrong Elevation
Raw Report
METAR SBBV 211200Z 26005KT 9999 VCSH BKN004 BKN015 BKN070 25/23 Q1017=

Extra information for SBBV:More info

Metar Taf Metar & Taf Last 4 Metars F.Rules Stats Wind Profile Meteogram Temp Stats Airport Information Weather charts Add Link Nearby VenuesMetar ALERT Operation Metar Decoded Social comments